Time,TemperatureF,DewpointF,PressureIn,WindDirection,WindDirectionDegrees,WindSpeedMPH,WindSpeedGustMPH,Humidity,HourlyPrecipIn,Conditions,Clouds,dailyrainin,SoftwareType,DateUTC
2013-02-09 00:03:00,55.1,50.0,30.15,SE,131,4.0,12.0,84,0.00,,,0.00,weatherlink.com 1.10,2013-02-09 06:03:00,
2013-02-09 00:18:00,54.9,50.0,30.15,ENE,71,2.0,13.0,84,0.00,,,0.00,weatherlink.com 1.10,2013-02-09 06:18:00,
2013-02-09 00:33:00,54.7,50.0,30.15,NE,45,5.0,7.0,84,0.00,,,0.00,weatherlink.com 1.10,2013-02-09 06:33:00,
2013-02-09 00:48:00,54.7,50.0,30.15,ENE,63,3.0,8.0,85,0.00,,,0.00,weatherlink.com 1.10,2013-02-09 06:48:00,
2013-02-09 01:03:00,54.7,50.0,30.15,ENE,69,7.0,9.0,85,0.00,,,0.00,weatherlink.com 1.10,2013-02-09 07:03:00,
2013-02-09 01:18:00,54.8,50.0,30.16,NE,51,3.0,10.0,85,0.00,,,0.00,weatherlink.com 1.10,2013-02-09 07:18:00,
2013-02-09 01:33:00,54.7,50.0,30.15,NE,47,8.0,11.0,85,0.00,,,0.00,weatherlink.com 1.10,2013-02-09 07:33:00,
2013-02-09 01:48:00,54.7,50.0,30.16,East,80,3.0,8.0,85,0.00,,,0.00,weatherlink.com 1.10,2013-02-09 07:48:00,
2013-02-09 02:04:00,54.6,50.0,30.15,NE,53,2.0,5.0,85,0.00,,,0.00,weatherlink.com 1.10,2013-02-09 08:04:00,
2013-02-09 02:18:00,54.5,50.0,30.15,East,97,1.0,11.0,86,0.00,,,0.00,weatherlink.com 1.10,2013-02-09 08:18:00,
2013-02-09 02:33:00,54.2,50.0,30.15,SE,138,3.0,8.0,85,0.00,,,0.00,weatherlink.com 1.10,2013-02-09 08:33:00,
2013-02-09 02:48:00,53.4,49.0,30.14,ESE,105,3.0,11.0,85,0.00,,,0.00,weatherlink.com 1.10,2013-02-09 08:48:00,
2013-02-09 03:03:00,52.8,49.0,30.15,ESE,113,3.0,9.0,86,0.00,,,0.00,weatherlink.com 1.10,2013-02-09 09:03:00,
2013-02-09 03:18:00,52.8,49.0,30.14,ENE,63,1.0,10.0,86,0.00,,,0.00,weatherlink.com 1.10,2013-02-09 09:18:00,
2013-02-09 03:33:00,52.6,49.0,30.13,ENE,67,2.0,9.0,87,0.00,,,0.00,weatherlink.com 1.10,2013-02-09 09:33:00,
2013-02-09 03:49:00,52.4,49.0,30.14,NE,49,3.0,5.0,87,0.00,,,0.00,weatherlink.com 1.10,2013-02-09 09:49:00,
2013-02-09 04:04:00,51.8,48.0,30.14,ENE,67,0.0,3.0,88,0.00,,,0.00,weatherlink.com 1.10,2013-02-09 10:04:00,
2013-02-09 04:18:00,51.5,48.0,30.15,East,86,1.0,4.0,89,0.00,,,0.00,weatherlink.com 1.10,2013-02-09 10:18:00,
2013-02-09 04:33:00,51.6,49.0,30.15,SE,128,2.0,2.0,90,0.00,,,0.00,weatherlink.com 1.10,2013-02-09 10:33:00,
2013-02-09 04:49:00,51.7,49.0,30.15,ESE,122,4.0,10.0,89,0.00,,,0.00,weatherlink.com 1.10,2013-02-09 10:49:00,
2013-02-09 05:04:00,51.3,48.0,30.16,East,92,1.0,8.0,88,0.00,,,0.00,weatherlink.com 1.10,2013-02-09 11:04:00,
2013-02-09 05:19:00,50.7,47.0,30.16,ESE,103,1.0,8.0,88,0.00,,,0.00,weatherlink.com 1.10,2013-02-09 11:19:00,
2013-02-09 05:34:00,50.2,47.0,30.16,East,87,1.0,5.0,88,0.00,,,0.00,weatherlink.com 1.10,2013-02-09 11:34:00,
2013-02-09 05:49:00,49.6,47.0,30.16,East,98,2.0,11.0,89,0.00,,,0.00,weatherlink.com 1.10,2013-02-09 11:49:00,
2013-02-09 06:04:00,49.3,46.0,30.17,East,84,0.0,8.0,88,0.00,,,0.00,weatherlink.com 1.10,2013-02-09 12:04:00,
2013-02-09 06:19:00,49.0,46.0,30.18,ESE,121,3.0,5.0,89,0.00,,,0.00,weatherlink.com 1.10,2013-02-09 12:19:00,
2013-02-09 06:34:00,48.7,46.0,30.18,East,93,3.0,6.0,89,0.00,,,0.00,weatherlink.com 1.10,2013-02-09 12:34:00,
2013-02-09 06:49:00,48.6,46.0,30.18,East,84,0.0,8.0,89,0.00,,,0.00,weatherlink.com 1.10,2013-02-09 12:49:00,
2013-02-09 07:04:00,48.3,46.0,30.18,East,83,0.0,5.0,90,0.00,,,0.00,weatherlink.com 1.10,2013-02-09 13:04:00,
2013-02-09 07:19:00,48.3,46.0,30.18,ESE,111,3.0,8.0,90,0.00,,,0.00,weatherlink.com 1.10,2013-02-09 13:19:00,
2013-02-09 07:34:00,48.6,46.0,30.20,East,101,2.0,7.0,89,0.00,,,0.00,weatherlink.com 1.10,2013-02-09 13:34:00,
2013-02-09 07:49:00,48.7,46.0,30.20,ENE,78,4.0,7.0,89,0.00,,,0.00,weatherlink.com 1.10,2013-02-09 13:49:00,
2013-02-09 08:04:00,48.9,46.0,30.20,ENE,76,1.0,7.0,88,0.00,,,0.00,weatherlink.com 1.10,2013-02-09 14:04:00,
2013-02-09 08:19:00,49.2,46.0,30.20,East,85,2.0,7.0,88,0.00,,,0.00,weatherlink.com 1.10,2013-02-09 14:19:00,
2013-02-09 08:34:00,49.5,46.0,30.20,ESE,121,1.0,7.0,87,0.00,,,0.00,weatherlink.com 1.10,2013-02-09 14:34:00,
2013-02-09 08:49:00,50.1,47.0,30.20,ESE,115,3.0,7.0,88,0.00,,,0.00,weatherlink.com 1.10,2013-02-09 14:49:00,
2013-02-09 09:04:00,50.5,47.0,30.21,ENE,64,2.0,6.0,87,0.00,,,0.00,weatherlink.com 1.10,2013-02-09 15:04:00,
2013-02-09 09:19:00,51.0,47.0,30.21,ESE,107,0.0,7.0,87,0.00,,,0.00,weatherlink.com 1.10,2013-02-09 15:19:00,
2013-02-09 09:34:00,51.4,48.0,30.21,ESE,117,1.0,9.0,87,0.00,,,0.00,weatherlink.com 1.10,2013-02-09 15:34:00,
2013-02-09 09:49:00,52.8,48.0,30.21,ENE,78,4.0,6.0,85,0.00,,,0.00,weatherlink.com 1.10,2013-02-09 15:49:00,
2013-02-09 10:04:00,53.6,49.0,30.21,ENE,63,2.0,8.0,84,0.00,,,0.00,weatherlink.com 1.10,2013-02-09 16:04:00,
2013-02-09 10:19:00,54.0,50.0,30.22,ESE,102,5.0,10.0,85,0.00,,,0.00,weatherlink.com 1.10,2013-02-09 16:19:00,
2013-02-09 10:34:00,55.1,50.0,30.21,East,96,5.0,9.0,83,0.00,,,0.00,weatherlink.com 1.10,2013-02-09 16:34:00,
2013-02-09 10:50:00,55.9,51.0,30.21,North,10,4.0,8.0,83,0.00,,,0.00,weatherlink.com 1.10,2013-02-09 16:50:00,
2013-02-09 11:04:00,57.3,52.0,30.20,East,94,3.0,7.0,81,0.00,,,0.00,weatherlink.com 1.10,2013-02-09 17:04:00,
2013-02-09 11:20:00,58.5,53.0,30.20,ESE,110,2.0,10.0,82,0.00,,,0.00,weatherlink.com 1.10,2013-02-09 17:20:00,
2013-02-09 11:34:00,60.5,54.0,30.19,SE,127,2.0,8.0,80,0.00,,,0.00,weatherlink.com 1.10,2013-02-09 17:34:00,
2013-02-09 11:50:00,59.8,53.0,30.18,East,90,2.0,9.0,78,0.00,,,0.00,weatherlink.com 1.10,2013-02-09 17:50:00,
2013-02-09 12:04:00,60.9,55.0,30.16,SE,130,4.0,9.0,81,0.00,,,0.00,weatherlink.com 1.10,2013-02-09 18:04:00,
2013-02-09 12:19:00,62.5,55.0,30.15,SE,132,11.0,12.0,76,0.00,,,0.00,weatherlink.com 1.10,2013-02-09 18:19:00,
2013-02-09 12:34:00,61.5,55.0,30.14,East,92,0.0,11.0,80,0.00,,,0.00,weatherlink.com 1.10,2013-02-09 18:34:00,
2013-02-09 12:50:00,63.4,56.0,30.13,SE,128,1.0,11.0,76,0.00,,,0.00,weatherlink.com 1.10,2013-02-09 18:50:00,
2013-02-09 13:05:00,64.3,56.0,30.12,SE,145,5.0,11.0,75,0.00,,,0.00,weatherlink.com 1.10,2013-02-09 19:05:00,
2013-02-09 13:20:00,63.6,56.0,30.11,ENE,78,4.0,11.0,77,0.00,,,0.00,weatherlink.com 1.10,2013-02-09 19:20:00,
2013-02-09 13:35:00,65.0,57.0,30.11,SSE,159,3.0,14.0,74,0.00,,,0.00,weatherlink.com 1.10,2013-02-09 19:35:00,
2013-02-09 13:50:00,64.1,57.0,30.10,ESE,123,8.0,11.0,77,0.00,,,0.00,weatherlink.com 1.10,2013-02-09 19:50:00,
2013-02-09 14:05:00,64.2,57.0,30.10,East,97,5.0,11.0,77,0.00,,,0.00,weatherlink.com 1.10,2013-02-09 20:05:00,
2013-02-09 14:20:00,62.8,56.0,30.10,SE,142,7.0,13.0,79,0.00,,,0.00,weatherlink.com 1.10,2013-02-09 20:20:00,
2013-02-09 14:35:00,62.0,56.0,30.09,SE,126,5.0,10.0,81,0.00,,,0.00,weatherlink.com 1.10,2013-02-09 20:35:00,
2013-02-09 14:50:00,62.3,57.0,30.09,ENE,61,8.0,9.0,82,0.00,,,0.00,weatherlink.com 1.10,2013-02-09 20:50:00,
2013-02-09 15:05:00,62.6,57.0,30.08,ESE,103,4.0,9.0,82,0.00,,,0.00,weatherlink.com 1.10,2013-02-09 21:05:00,
2013-02-09 15:20:00,62.7,57.0,30.08,SE,128,9.0,9.0,82,0.00,,,0.00,weatherlink.com 1.10,2013-02-09 21:20:00,
2013-02-09 15:35:00,62.8,58.0,30.08,ESE,108,0.0,6.0,83,0.00,,,0.00,weatherlink.com 1.10,2013-02-09 21:35:00,
2013-02-09 15:50:00,62.8,58.0,30.07,SE,135,5.0,11.0,83,0.00,,,0.00,weatherlink.com 1.10,2013-02-09 21:50:00,
2013-02-09 16:05:00,62.4,58.0,30.07,SE,138,9.0,11.0,84,0.00,,,0.00,weatherlink.com 1.10,2013-02-09 22:05:00,
2013-02-09 16:20:00,62.3,58.0,30.07,East,92,7.0,12.0,85,0.00,,,0.00,weatherlink.com 1.10,2013-02-09 22:20:00,
2013-02-09 16:35:00,62.3,58.0,30.07,ENE,60,7.0,7.0,85,0.00,,,0.00,weatherlink.com 1.10,2013-02-09 22:35:00,
2013-02-09 16:50:00,62.2,58.0,30.07,ESE,115,4.0,10.0,85,0.00,,,0.00,weatherlink.com 1.10,2013-02-09 22:50:00,
2013-02-09 17:05:00,62.0,58.0,30.07,SE,136,4.0,10.0,86,0.00,,,0.00,weatherlink.com 1.10,2013-02-09 23:05:00,
2013-02-09 17:20:00,61.8,58.0,30.06,ESE,108,2.0,8.0,86,0.00,,,0.00,weatherlink.com 1.10,2013-02-09 23:20:00,
2013-02-09 17:35:00,61.5,58.0,30.06,ESE,103,3.0,10.0,87,0.00,,,0.00,weatherlink.com 1.10,2013-02-09 23:35:00,
2013-02-09 17:50:00,61.2,58.0,30.06,East,92,5.0,8.0,88,0.00,,,0.00,weatherlink.com 1.10,2013-02-09 23:50:00,
2013-02-09 18:05:00,60.5,57.0,30.06,ESE,117,4.0,8.0,89,0.00,,,0.00,weatherlink.com 1.10,2013-02-10 00:05:00,
2013-02-09 18:20:00,59.9,57.0,30.06,ESE,109,1.0,5.0,90,0.00,,,0.00,weatherlink.com 1.10,2013-02-10 00:20:00,
2013-02-09 18:35:00,59.3,57.0,30.06,SE,133,2.0,6.0,91,0.00,,,0.00,weatherlink.com 1.10,2013-02-10 00:35:00,
2013-02-09 18:50:00,59.3,57.0,30.06,ESE,112,2.0,6.0,92,0.00,,,0.00,weatherlink.com 1.10,2013-02-10 00:50:00,
2013-02-09 19:05:00,59.1,57.0,30.06,ESE,122,1.0,5.0,92,0.00,,,0.00,weatherlink.com 1.10,2013-02-10 01:05:00,
2013-02-09 19:20:00,58.8,57.0,30.06,ESE,105,2.0,8.0,93,0.00,,,0.00,weatherlink.com 1.10,2013-02-10 01:20:00,
2013-02-09 19:35:00,58.5,57.0,30.06,ESE,104,3.0,6.0,94,0.00,,,0.00,weatherlink.com 1.10,2013-02-10 01:35:00,
2013-02-09 19:50:00,58.7,57.0,30.06,SE,125,4.0,9.0,94,0.00,,,0.00,weatherlink.com 1.10,2013-02-10 01:50:00,
2013-02-09 20:05:00,59.2,58.0,30.05,ESE,113,2.0,11.0,94,0.00,,,0.00,weatherlink.com 1.10,2013-02-10 02:05:00,
2013-02-09 20:20:00,59.5,58.0,30.06,ESE,103,4.0,11.0,94,0.00,,,0.00,weatherlink.com 1.10,2013-02-10 02:20:00,
2013-02-09 20:35:00,59.5,58.0,30.06,ESE,103,9.0,12.0,94,0.00,,,0.00,weatherlink.com 1.10,2013-02-10 02:35:00,
2013-02-09 20:50:00,59.6,58.0,30.05,ESE,110,4.0,11.0,95,0.00,,,0.00,weatherlink.com 1.10,2013-02-10 02:50:00,
2013-02-09 21:06:00,59.8,58.0,30.05,ESE,111,8.0,11.0,94,0.00,,,0.00,weatherlink.com 1.10,2013-02-10 03:06:00,
2013-02-09 21:20:00,60.0,58.0,30.04,East,92,3.0,10.0,94,0.00,,,0.00,weatherlink.com 1.10,2013-02-10 03:20:00,
2013-02-09 21:35:00,60.2,59.0,30.04,ESE,121,8.0,14.0,94,0.00,,,0.00,weatherlink.com 1.10,2013-02-10 03:35:00,
2013-02-09 21:50:00,60.5,59.0,30.03,ESE,107,8.0,14.0,94,0.00,,,0.00,weatherlink.com 1.10,2013-02-10 03:50:00,
2013-02-09 22:05:00,60.7,59.0,30.03,SE,128,5.0,14.0,94,0.00,,,0.00,weatherlink.com 1.10,2013-02-10 04:05:00,
2013-02-09 22:20:00,60.9,59.0,30.04,ESE,123,9.0,10.0,94,0.00,,,0.00,weatherlink.com 1.10,2013-02-10 04:20:00,
2013-02-09 22:35:00,61.0,59.0,30.03,East,91,1.0,10.0,94,0.00,,,0.00,weatherlink.com 1.10,2013-02-10 04:35:00,
2013-02-09 22:50:00,61.1,59.0,30.03,SE,138,6.0,12.0,94,0.00,,,0.00,weatherlink.com 1.10,2013-02-10 04:50:00,
2013-02-09 23:05:00,61.3,60.0,30.04,East,101,9.0,9.0,94,0.00,,,0.00,weatherlink.com 1.10,2013-02-10 05:05:00,
2013-02-09 23:21:00,61.4,60.0,30.03,ESE,122,5.0,10.0,94,0.00,,,0.00,weatherlink.com 1.10,2013-02-10 05:21:00,
2013-02-09 23:36:00,61.4,60.0,30.03,ESE,106,3.0,10.0,94,0.00,,,0.00,weatherlink.com 1.10,2013-02-10 05:36:00,
2013-02-09 23:51:00,61.1,60.0,30.02,ESE,119,2.0,8.0,95,0.01,,,0.01,weatherlink.com 1.10,2013-02-10 05:51:00,